sensor_id;sensor_type;location;lat;lon;timestamp;P1;durP1;ratioP1;P2;durP2;ratioP2
62911;SDS011;49111;51.028;4.218;2022-09-09T00:00:24;4.68;;;2.00;;
62911;SDS011;49111;51.028;4.218;2022-09-09T00:03:01;8.45;;;2.42;;
62911;SDS011;49111;51.028;4.218;2022-09-09T00:05:50;8.00;;;2.25;;
62911;SDS011;49111;51.028;4.218;2022-09-09T00:09:08;5.38;;;2.17;;
62911;SDS011;49111;51.028;4.218;2022-09-09T00:11:51;4.85;;;2.25;;
62911;SDS011;49111;51.028;4.218;2022-09-09T00:16:58;5.75;;;2.47;;
62911;SDS011;49111;51.028;4.218;2022-09-09T00:19:38;4.90;;;2.00;;
62911;SDS011;49111;51.028;4.218;2022-09-09T00:22:19;4.28;;;1.98;;
62911;SDS011;49111;51.028;4.218;2022-09-09T00:24:49;6.55;;;2.20;;
62911;SDS011;49111;51.028;4.218;2022-09-09T00:32:36;3.70;;;2.20;;
62911;SDS011;49111;51.028;4.218;2022-09-09T00:35:04;6.18;;;2.10;;
62911;SDS011;49111;51.028;4.218;2022-09-09T00:37:41;6.22;;;1.92;;
62911;SDS011;49111;51.028;4.218;2022-09-09T00:40:31;7.40;;;2.05;;
62911;SDS011;49111;51.028;4.218;2022-09-09T00:49:02;4.70;;;2.08;;
62911;SDS011;49111;51.028;4.218;2022-09-09T01:02:34;4.40;;;2.05;;
62911;SDS011;49111;51.028;4.218;2022-09-09T01:05:03;6.18;;;1.80;;
62911;SDS011;49111;51.028;4.218;2022-09-09T01:07:36;6.50;;;2.30;;
62911;SDS011;49111;51.028;4.218;2022-09-09T01:10:03;6.22;;;2.53;;
62911;SDS011;49111;51.028;4.218;2022-09-09T01:12:41;7.05;;;2.60;;
62911;SDS011;49111;51.028;4.218;2022-09-09T01:15:16;10.57;;;3.80;;
62911;SDS011;49111;51.028;4.218;2022-09-09T01:18:08;6.07;;;3.20;;
62911;SDS011;49111;51.028;4.218;2022-09-09T01:20:55;8.10;;;3.45;;
62911;SDS011;49111;51.028;4.218;2022-09-09T01:26:46;9.75;;;3.10;;
62911;SDS011;49111;51.028;4.218;2022-09-09T01:34:24;8.80;;;4.03;;
62911;SDS011;49111;51.028;4.218;2022-09-09T01:39:31;12.10;;;3.28;;
62911;SDS011;49111;51.028;4.218;2022-09-09T01:42:03;8.73;;;3.97;;
62911;SDS011;49111;51.028;4.218;2022-09-09T01:44:31;6.85;;;3.40;;
62911;SDS011;49111;51.028;4.218;2022-09-09T01:46:59;7.47;;;3.53;;
62911;SDS011;49111;51.028;4.218;2022-09-09T01:49:25;11.35;;;4.43;;
62911;SDS011;49111;51.028;4.218;2022-09-09T01:51:52;8.32;;;3.80;;
62911;SDS011;49111;51.028;4.218;2022-09-09T01:54:27;8.05;;;4.05;;
62911;SDS011;49111;51.028;4.218;2022-09-09T02:07:48;8.70;;;3.83;;
62911;SDS011;49111;51.028;4.218;2022-09-09T02:10:42;7.82;;;3.30;;
62911;SDS011;49111;51.028;4.218;2022-09-09T02:13:26;6.13;;;3.03;;
62911;SDS011;49111;51.028;4.218;2022-09-09T02:16:04;8.15;;;3.33;;
62911;SDS011;49111;51.028;4.218;2022-09-09T02:21:28;8.38;;;2.88;;
62911;SDS011;49111;51.028;4.218;2022-09-09T02:23:56;4.10;;;2.60;;
62911;SDS011;49111;51.028;4.218;2022-09-09T02:26:28;7.80;;;2.67;;
62911;SDS011;49111;51.028;4.218;2022-09-09T02:29:01;7.25;;;2.58;;
62911;SDS011;49111;51.028;4.218;2022-09-09T02:31:29;9.18;;;3.22;;
62911;SDS011;49111;51.028;4.218;2022-09-09T02:34:01;7.00;;;2.60;;
62911;SDS011;49111;51.028;4.218;2022-09-09T02:36:31;6.53;;;2.42;;
62911;SDS011;49111;51.028;4.218;2022-09-09T02:38:59;7.00;;;2.42;;
62911;SDS011;49111;51.028;4.218;2022-09-09T02:41:33;8.70;;;2.72;;
62911;SDS011;49111;51.028;4.218;2022-09-09T02:44:02;9.35;;;3.28;;
62911;SDS011;49111;51.028;4.218;2022-09-09T02:46:36;8.35;;;3.33;;
62911;SDS011;49111;51.028;4.218;2022-09-09T02:49:10;7.25;;;2.78;;
62911;SDS011;49111;51.028;4.218;2022-09-09T02:54:27;6.32;;;2.75;;
62911;SDS011;49111;51.028;4.218;2022-09-09T02:56:57;9.77;;;3.30;;
62911;SDS011;49111;51.028;4.218;2022-09-09T02:59:33;8.02;;;3.28;;
62911;SDS011;49111;51.028;4.218;2022-09-09T03:01:59;9.93;;;3.20;;
62911;SDS011;49111;51.028;4.218;2022-09-09T03:04:26;8.85;;;2.70;;
62911;SDS011;49111;51.028;4.218;2022-09-09T03:06:52;7.75;;;2.40;;
62911;SDS011;49111;51.028;4.218;2022-09-09T03:09:19;12.43;;;3.70;;
62911;SDS011;49111;51.028;4.218;2022-09-09T03:11:45;9.48;;;3.33;;
62911;SDS011;49111;51.028;4.218;2022-09-09T03:14:13;7.72;;;3.13;;
62911;SDS011;49111;51.028;4.218;2022-09-09T03:16:39;3.95;;;2.72;;
62911;SDS011;49111;51.028;4.218;2022-09-09T03:19:05;8.95;;;3.03;;
62911;SDS011;49111;51.028;4.218;2022-09-09T03:21:32;7.40;;;2.58;;
62911;SDS011;49111;51.028;4.218;2022-09-09T03:23:58;12.10;;;2.70;;
62911;SDS011;49111;51.028;4.218;2022-09-09T03:26:23;5.63;;;2.30;;
62911;SDS011;49111;51.028;4.218;2022-09-09T03:28:49;6.15;;;2.30;;
62911;SDS011;49111;51.028;4.218;2022-09-09T03:31:18;9.32;;;2.45;;
62911;SDS011;49111;51.028;4.218;2022-09-09T03:33:45;7.13;;;2.33;;
62911;SDS011;49111;51.028;4.218;2022-09-09T03:36:13;11.68;;;4.15;;
62911;SDS011;49111;51.028;4.218;2022-09-09T03:38:40;6.88;;;2.72;;
62911;SDS011;49111;51.028;4.218;2022-09-09T03:41:07;11.68;;;2.58;;
62911;SDS011;49111;51.028;4.218;2022-09-09T03:43:33;7.65;;;3.15;;
62911;SDS011;49111;51.028;4.218;2022-09-09T03:45:59;12.27;;;2.97;;
62911;SDS011;49111;51.028;4.218;2022-09-09T03:48:26;8.57;;;3.10;;
62911;SDS011;49111;51.028;4.218;2022-09-09T03:50:54;14.05;;;2.95;;
62911;SDS011;49111;51.028;4.218;2022-09-09T03:53:22;8.60;;;2.70;;
62911;SDS011;49111;51.028;4.218;2022-09-09T03:55:51;4.78;;;2.15;;
62911;SDS011;49111;51.028;4.218;2022-09-09T03:58:21;6.65;;;2.45;;
62911;SDS011;49111;51.028;4.218;2022-09-09T04:00:53;10.82;;;3.25;;
62911;SDS011;49111;51.028;4.218;2022-09-09T04:03:25;7.07;;;2.65;;
62911;SDS011;49111;51.028;4.218;2022-09-09T04:05:51;4.72;;;2.35;;
62911;SDS011;49111;51.028;4.218;2022-09-09T04:08:18;7.63;;;2.42;;
62911;SDS011;49111;51.028;4.218;2022-09-09T04:10:47;9.10;;;3.22;;
62911;SDS011;49111;51.028;4.218;2022-09-09T04:13:15;6.18;;;2.15;;
62911;SDS011;49111;51.028;4.218;2022-09-09T04:15:44;10.95;;;2.72;;
62911;SDS011;49111;51.028;4.218;2022-09-09T04:18:15;9.55;;;2.83;;
62911;SDS011;49111;51.028;4.218;2022-09-09T04:20:41;10.57;;;2.38;;
62911;SDS011;49111;51.028;4.218;2022-09-09T04:23:08;6.43;;;2.70;;
62911;SDS011;49111;51.028;4.218;2022-09-09T04:25:34;5.82;;;2.40;;
62911;SDS011;49111;51.028;4.218;2022-09-09T04:28:00;9.98;;;2.83;;
62911;SDS011;49111;51.028;4.218;2022-09-09T04:30:28;9.82;;;2.90;;
62911;SDS011;49111;51.028;4.218;2022-09-09T04:32:53;16.13;;;3.53;;
62911;SDS011;49111;51.028;4.218;2022-09-09T04:35:19;9.40;;;2.67;;
62911;SDS011;49111;51.028;4.218;2022-09-09T04:37:45;9.55;;;2.75;;
62911;SDS011;49111;51.028;4.218;2022-09-09T04:40:11;9.70;;;2.60;;
62911;SDS011;49111;51.028;4.218;2022-09-09T04:42:38;10.55;;;2.47;;
62911;SDS011;49111;51.028;4.218;2022-09-09T04:45:06;9.50;;;2.83;;
62911;SDS011;49111;51.028;4.218;2022-09-09T04:47:33;7.45;;;2.67;;
62911;SDS011;49111;51.028;4.218;2022-09-09T04:50:01;9.32;;;2.70;;
62911;SDS011;49111;51.028;4.218;2022-09-09T04:52:27;8.50;;;3.05;;
62911;SDS011;49111;51.028;4.218;2022-09-09T04:54:53;7.68;;;2.30;;
62911;SDS011;49111;51.028;4.218;2022-09-09T04:57:19;9.13;;;2.58;;
62911;SDS011;49111;51.028;4.218;2022-09-09T04:59:46;6.90;;;2.38;;
62911;SDS011;49111;51.028;4.218;2022-09-09T05:02:13;15.88;;;3.25;;
62911;SDS011;49111;51.028;4.218;2022-09-09T05:04:39;8.93;;;3.15;;
62911;SDS011;49111;51.028;4.218;2022-09-09T05:07:05;14.82;;;4.50;;
62911;SDS011;49111;51.028;4.218;2022-09-09T05:09:32;9.40;;;3.03;;
62911;SDS011;49111;51.028;4.218;2022-09-09T05:11:58;7.97;;;3.08;;
62911;SDS011;49111;51.028;4.218;2022-09-09T05:14:34;10.65;;;3.15;;
62911;SDS011;49111;51.028;4.218;2022-09-09T05:17:04;14.23;;;3.10;;
62911;SDS011;49111;51.028;4.218;2022-09-09T05:19:30;7.75;;;2.63;;
62911;SDS011;49111;51.028;4.218;2022-09-09T05:21:56;8.50;;;3.22;;
62911;SDS011;49111;51.028;4.218;2022-09-09T05:24:29;10.45;;;3.05;;
62911;SDS011;49111;51.028;4.218;2022-09-09T05:26:58;9.63;;;2.70;;
62911;SDS011;49111;51.028;4.218;2022-09-09T05:29:26;11.35;;;3.10;;
62911;SDS011;49111;51.028;4.218;2022-09-09T05:31:54;11.18;;;3.05;;
62911;SDS011;49111;51.028;4.218;2022-09-09T05:34:20;8.70;;;3.10;;
62911;SDS011;49111;51.028;4.218;2022-09-09T05:36:46;8.95;;;3.10;;
62911;SDS011;49111;51.028;4.218;2022-09-09T05:39:13;8.50;;;3.53;;
62911;SDS011;49111;51.028;4.218;2022-09-09T05:41:39;8.10;;;2.53;;
62911;SDS011;49111;51.028;4.218;2022-09-09T05:44:05;9.70;;;2.75;;
62911;SDS011;49111;51.028;4.218;2022-09-09T05:46:35;5.45;;;2.38;;
62911;SDS011;49111;51.028;4.218;2022-09-09T05:49:01;13.48;;;3.17;;
62911;SDS011;49111;51.028;4.218;2022-09-09T05:51:30;10.18;;;3.00;;
62911;SDS011;49111;51.028;4.218;2022-09-09T05:53:57;9.13;;;3.10;;
62911;SDS011;49111;51.028;4.218;2022-09-09T05:56:29;10.60;;;3.25;;
62911;SDS011;49111;51.028;4.218;2022-09-09T05:58:57;12.82;;;3.13;;
62911;SDS011;49111;51.028;4.218;2022-09-09T06:01:27;8.05;;;2.67;;
62911;SDS011;49111;51.028;4.218;2022-09-09T06:06:26;7.75;;;2.83;;
62911;SDS011;49111;51.028;4.218;2022-09-09T06:08:57;10.18;;;2.70;;
62911;SDS011;49111;51.028;4.218;2022-09-09T06:11:27;8.00;;;2.58;;
62911;SDS011;49111;51.028;4.218;2022-09-09T06:13:58;8.17;;;3.60;;
62911;SDS011;49111;51.028;4.218;2022-09-09T06:16:26;13.07;;;3.20;;
62911;SDS011;49111;51.028;4.218;2022-09-09T06:18:53;8.93;;;2.90;;
62911;SDS011;49111;51.028;4.218;2022-09-09T06:21:26;11.27;;;4.45;;
62911;SDS011;49111;51.028;4.218;2022-09-09T06:23:55;7.90;;;3.95;;
62911;SDS011;49111;51.028;4.218;2022-09-09T06:26:25;13.80;;;3.13;;
62911;SDS011;49111;51.028;4.218;2022-09-09T06:28:56;5.30;;;2.70;;
62911;SDS011;49111;51.028;4.218;2022-09-09T06:31:24;11.95;;;3.47;;
62911;SDS011;49111;51.028;4.218;2022-09-09T06:33:53;7.47;;;2.95;;
62911;SDS011;49111;51.028;4.218;2022-09-09T06:36:22;6.25;;;2.70;;
62911;SDS011;49111;51.028;4.218;2022-09-09T06:38:49;10.77;;;2.38;;
62911;SDS011;49111;51.028;4.218;2022-09-09T06:41:16;6.88;;;2.40;;
62911;SDS011;49111;51.028;4.218;2022-09-09T06:43:45;10.38;;;2.90;;
62911;SDS011;49111;51.028;4.218;2022-09-09T06:46:12;11.93;;;2.65;;
62911;SDS011;49111;51.028;4.218;2022-09-09T06:48:40;9.60;;;2.40;;
62911;SDS011;49111;51.028;4.218;2022-09-09T06:53:37;5.55;;;2.42;;
62911;SDS011;49111;51.028;4.218;2022-09-09T06:58:36;5.57;;;2.50;;
62911;SDS011;49111;51.028;4.218;2022-09-09T07:01:08;9.35;;;2.95;;
62911;SDS011;49111;51.028;4.218;2022-09-09T07:03:38;7.30;;;1.98;;
62911;SDS011;49111;51.028;4.218;2022-09-09T07:06:05;4.72;;;2.22;;
62911;SDS011;49111;51.028;4.218;2022-09-09T07:08:32;8.55;;;2.45;;
62911;SDS011;49111;51.028;4.218;2022-09-09T07:11:05;7.13;;;2.78;;
62911;SDS011;49111;51.028;4.218;2022-09-09T07:13:35;8.80;;;2.97;;
62911;SDS011;49111;51.028;4.218;2022-09-09T07:16:07;7.43;;;2.83;;
62911;SDS011;49111;51.028;4.218;2022-09-09T07:18:35;6.68;;;2.58;;
62911;SDS011;49111;51.028;4.218;2022-09-09T07:21:01;8.85;;;2.33;;
62911;SDS011;49111;51.028;4.218;2022-09-09T07:23:29;9.32;;;2.60;;
62911;SDS011;49111;51.028;4.218;2022-09-09T07:25:56;7.20;;;2.40;;
62911;SDS011;49111;51.028;4.218;2022-09-09T07:28:23;7.15;;;2.05;;
62911;SDS011;49111;51.028;4.218;2022-09-09T07:30:59;9.82;;;2.47;;
62911;SDS011;49111;51.028;4.218;2022-09-09T07:33:30;7.22;;;2.05;;
62911;SDS011;49111;51.028;4.218;2022-09-09T07:36:02;8.10;;;2.13;;
62911;SDS011;49111;51.028;4.218;2022-09-09T07:38:30;8.43;;;2.35;;
62911;SDS011;49111;51.028;4.218;2022-09-09T07:41:05;7.68;;;1.88;;
62911;SDS011;49111;51.028;4.218;2022-09-09T07:43:39;7.70;;;2.00;;
62911;SDS011;49111;51.028;4.218;2022-09-09T07:46:08;7.65;;;2.40;;
62911;SDS011;49111;51.028;4.218;2022-09-09T07:48:35;7.43;;;2.22;;
62911;SDS011;49111;51.028;4.218;2022-09-09T07:51:05;17.67;;;2.80;;
62911;SDS011;49111;51.028;4.218;2022-09-09T07:53:37;4.80;;;2.05;;
62911;SDS011;49111;51.028;4.218;2022-09-09T07:56:05;5.78;;;2.30;;
62911;SDS011;49111;51.028;4.218;2022-09-09T07:58:38;8.63;;;2.78;;
62911;SDS011;49111;51.028;4.218;2022-09-09T08:01:09;9.18;;;2.25;;
62911;SDS011;49111;51.028;4.218;2022-09-09T08:03:36;9.57;;;2.50;;
62911;SDS011;49111;51.028;4.218;2022-09-09T08:06:04;6.43;;;2.90;;
62911;SDS011;49111;51.028;4.218;2022-09-09T08:08:32;5.75;;;2.42;;
62911;SDS011;49111;51.028;4.218;2022-09-09T08:11:10;6.60;;;1.90;;
62911;SDS011;49111;51.028;4.218;2022-09-09T08:13:37;7.60;;;2.25;;
62911;SDS011;49111;51.028;4.218;2022-09-09T08:16:07;8.88;;;2.47;;
62911;SDS011;49111;51.028;4.218;2022-09-09T08:18:37;5.90;;;2.42;;
62911;SDS011;49111;51.028;4.218;2022-09-09T08:21:17;8.52;;;2.15;;
62911;SDS011;49111;51.028;4.218;2022-09-09T08:23:45;8.43;;;2.63;;
62911;SDS011;49111;51.028;4.218;2022-09-09T08:26:14;9.52;;;2.67;;
62911;SDS011;49111;51.028;4.218;2022-09-09T08:28:41;8.77;;;2.65;;
62911;SDS011;49111;51.028;4.218;2022-09-09T08:31:09;7.05;;;2.20;;
62911;SDS011;49111;51.028;4.218;2022-09-09T08:33:41;7.57;;;2.22;;
62911;SDS011;49111;51.028;4.218;2022-09-09T08:36:10;8.40;;;2.38;;
62911;SDS011;49111;51.028;4.218;2022-09-09T08:38:38;9.18;;;2.75;;
62911;SDS011;49111;51.028;4.218;2022-09-09T08:44:13;6.87;;;3.07;;
62911;SDS011;49111;51.028;4.218;2022-09-09T08:46:51;9.52;;;2.55;;
62911;SDS011;49111;51.028;4.218;2022-09-09T08:49:30;7.97;;;2.15;;
62911;SDS011;49111;51.028;4.218;2022-09-09T08:51:59;8.27;;;2.30;;
62911;SDS011;49111;51.028;4.218;2022-09-09T08:54:27;4.80;;;2.05;;
62911;SDS011;49111;51.028;4.218;2022-09-09T08:56:58;7.22;;;2.10;;
62911;SDS011;49111;51.028;4.218;2022-09-09T08:59:24;5.07;;;2.05;;
62911;SDS011;49111;51.028;4.218;2022-09-09T09:02:03;6.72;;;2.15;;
62911;SDS011;49111;51.028;4.218;2022-09-09T09:10:46;12.82;;;2.80;;
62911;SDS011;49111;51.028;4.218;2022-09-09T09:13:19;6.00;;;1.95;;
62911;SDS011;49111;51.028;4.218;2022-09-09T09:15:57;6.45;;;2.30;;
62911;SDS011;49111;51.028;4.218;2022-09-09T09:18:30;7.25;;;2.38;;
62911;SDS011;49111;51.028;4.218;2022-09-09T09:21:05;6.13;;;2.13;;
62911;SDS011;49111;51.028;4.218;2022-09-09T09:23:54;5.25;;;1.92;;
62911;SDS011;49111;51.028;4.218;2022-09-09T09:26:24;6.40;;;2.13;;
62911;SDS011;49111;51.028;4.218;2022-09-09T09:29:07;9.13;;;2.20;;
62911;SDS011;49111;51.028;4.218;2022-09-09T09:31:47;7.50;;;2.47;;
62911;SDS011;49111;51.028;4.218;2022-09-09T09:34:17;8.70;;;2.22;;
62911;SDS011;49111;51.028;4.218;2022-09-09T09:36:45;4.65;;;2.00;;
62911;SDS011;49111;51.028;4.218;2022-09-09T09:42:09;6.28;;;1.80;;
62911;SDS011;49111;51.028;4.218;2022-09-09T09:44:40;3.30;;;1.65;;
62911;SDS011;49111;51.028;4.218;2022-09-09T09:49:52;4.60;;;2.38;;
62911;SDS011;49111;51.028;4.218;2022-09-09T09:52:22;6.07;;;2.28;;
62911;SDS011;49111;51.028;4.218;2022-09-09T09:54:49;5.85;;;2.33;;
62911;SDS011;49111;51.028;4.218;2022-09-09T09:57:17;7.07;;;2.00;;
62911;SDS011;49111;51.028;4.218;2022-09-09T09:59:59;5.10;;;2.07;;
62911;SDS011;49111;51.028;4.218;2022-09-09T10:02:40;7.00;;;2.28;;
62911;SDS011;49111;51.028;4.218;2022-09-09T10:05:15;7.85;;;2.13;;
62911;SDS011;49111;51.028;4.218;2022-09-09T10:16:24;5.25;;;2.03;;
62911;SDS011;49111;51.028;4.218;2022-09-09T10:19:13;8.90;;;2.17;;
62911;SDS011;49111;51.028;4.218;2022-09-09T10:24:48;5.22;;;2.10;;
62911;SDS011;49111;51.028;4.218;2022-09-09T10:30:09;5.53;;;1.75;;
62911;SDS011;49111;51.028;4.218;2022-09-09T10:32:48;7.10;;;2.35;;
62911;SDS011;49111;51.028;4.218;2022-09-09T10:35:24;9.27;;;3.65;;
62911;SDS011;49111;51.028;4.218;2022-09-09T10:43:20;6.93;;;2.67;;
62911;SDS011;49111;51.028;4.218;2022-09-09T10:46:27;6.55;;;1.70;;
62911;SDS011;49111;51.028;4.218;2022-09-09T10:49:40;4.88;;;1.83;;
62911;SDS011;49111;51.028;4.218;2022-09-09T10:52:33;3.60;;;1.75;;
62911;SDS011;49111;51.028;4.218;2022-09-09T10:55:06;5.18;;;1.77;;
62911;SDS011;49111;51.028;4.218;2022-09-09T10:57:50;5.03;;;1.60;;
62911;SDS011;49111;51.028;4.218;2022-09-09T11:00:23;6.72;;;1.48;;
62911;SDS011;49111;51.028;4.218;2022-09-09T11:03:02;4.63;;;1.83;;
62911;SDS011;49111;51.028;4.218;2022-09-09T11:05:42;4.45;;;1.60;;
62911;SDS011;49111;51.028;4.218;2022-09-09T11:08:12;4.88;;;1.90;;
62911;SDS011;49111;51.028;4.218;2022-09-09T11:10:55;7.18;;;2.53;;
62911;SDS011;49111;51.028;4.218;2022-09-09T11:16:27;3.50;;;1.35;;
62911;SDS011;49111;51.028;4.218;2022-09-09T11:19:02;19.02;;;2.05;;
62911;SDS011;49111;51.028;4.218;2022-09-09T11:21:43;3.35;;;1.20;;
62911;SDS011;49111;51.028;4.218;2022-09-09T11:24:14;5.03;;;1.67;;
62911;SDS011;49111;51.028;4.218;2022-09-09T11:26:48;4.00;;;1.20;;
62911;SDS011;49111;51.028;4.218;2022-09-09T11:40:34;4.00;;;1.20;;
62911;SDS011;49111;51.028;4.218;2022-09-09T11:43:04;4.03;;;1.40;;
62911;SDS011;49111;51.028;4.218;2022-09-09T11:45:39;3.45;;;1.55;;
62911;SDS011;49111;51.028;4.218;2022-09-09T11:48:26;3.58;;;1.25;;
62911;SDS011;49111;51.028;4.218;2022-09-09T11:51:07;4.28;;;2.00;;
62911;SDS011;49111;51.028;4.218;2022-09-09T11:53:46;5.10;;;1.38;;
62911;SDS011;49111;51.028;4.218;2022-09-09T11:56:23;3.47;;;1.25;;
62911;SDS011;49111;51.028;4.218;2022-09-09T11:58:54;4.82;;;1.38;;
62911;SDS011;49111;51.028;4.218;2022-09-09T12:06:53;4.90;;;1.42;;
62911;SDS011;49111;51.028;4.218;2022-09-09T12:17:36;4.35;;;1.70;;
62911;SDS011;49111;51.028;4.218;2022-09-09T12:23:15;5.72;;;1.70;;
62911;SDS011;49111;51.028;4.218;2022-09-09T12:34:17;4.05;;;1.40;;
62911;SDS011;49111;51.028;4.218;2022-09-09T12:36:58;5.75;;;1.55;;
62911;SDS011;49111;51.028;4.218;2022-09-09T12:39:31;6.15;;;1.70;;
62911;SDS011;49111;51.028;4.218;2022-09-09T12:42:00;5.38;;;1.65;;
62911;SDS011;49111;51.028;4.218;2022-09-09T12:44:29;3.67;;;1.33;;
62911;SDS011;49111;51.028;4.218;2022-09-09T12:46:55;5.38;;;1.75;;
62911;SDS011;49111;51.028;4.218;2022-09-09T12:51:55;4.82;;;1.60;;
62911;SDS011;49111;51.028;4.218;2022-09-09T12:54:22;5.72;;;1.55;;
62911;SDS011;49111;51.028;4.218;2022-09-09T12:56:48;7.85;;;1.50;;
62911;SDS011;49111;51.028;4.218;2022-09-09T12:59:25;4.47;;;1.35;;
62911;SDS011;49111;51.028;4.218;2022-09-09T13:02:00;3.25;;;1.90;;
62911;SDS011;49111;51.028;4.218;2022-09-09T13:04:26;3.90;;;1.40;;
62911;SDS011;49111;51.028;4.218;2022-09-09T13:06:52;2.95;;;1.55;;
62911;SDS011;49111;51.028;4.218;2022-09-09T13:09:18;4.45;;;1.67;;
62911;SDS011;49111;51.028;4.218;2022-09-09T13:11:52;4.47;;;1.80;;
62911;SDS011;49111;51.028;4.218;2022-09-09T13:14:27;5.93;;;1.25;;
62911;SDS011;49111;51.028;4.218;2022-09-09T13:17:01;2.47;;;1.33;;
62911;SDS011;49111;51.028;4.218;2022-09-09T13:19:38;2.78;;;1.88;;
62911;SDS011;49111;51.028;4.218;2022-09-09T13:22:11;5.70;;;2.08;;
62911;SDS011;49111;51.028;4.218;2022-09-09T13:24:45;2.72;;;1.38;;
62911;SDS011;49111;51.028;4.218;2022-09-09T13:27:24;2.95;;;1.27;;
62911;SDS011;49111;51.028;4.218;2022-09-09T13:29:54;4.03;;;1.42;;
62911;SDS011;49111;51.028;4.218;2022-09-09T13:32:21;4.60;;;1.42;;
62911;SDS011;49111;51.028;4.218;2022-09-09T13:34:55;4.40;;;1.30;;
62911;SDS011;49111;51.028;4.218;2022-09-09T13:37:26;2.00;;;1.13;;
62911;SDS011;49111;51.028;4.218;2022-09-09T13:40:00;3.55;;;1.25;;
62911;SDS011;49111;51.028;4.218;2022-09-09T13:42:31;4.85;;;1.45;;
62911;SDS011;49111;51.028;4.218;2022-09-09T13:45:02;2.42;;;1.25;;
62911;SDS011;49111;51.028;4.218;2022-09-09T13:50:19;3.55;;;1.20;;
62911;SDS011;49111;51.028;4.218;2022-09-09T13:52:51;2.30;;;1.00;;
62911;SDS011;49111;51.028;4.218;2022-09-09T13:55:18;2.28;;;1.20;;
62911;SDS011;49111;51.028;4.218;2022-09-09T13:57:50;3.00;;;1.10;;
62911;SDS011;49111;51.028;4.218;2022-09-09T14:00:26;2.45;;;1.20;;
62911;SDS011;49111;51.028;4.218;2022-09-09T14:02:58;2.30;;;1.27;;
62911;SDS011;49111;51.028;4.218;2022-09-09T14:05:26;1.90;;;1.00;;
62911;SDS011;49111;51.028;4.218;2022-09-09T14:07:53;4.13;;;1.65;;
62911;SDS011;49111;51.028;4.218;2022-09-09T14:10:18;1.88;;;0.93;;
62911;SDS011;49111;51.028;4.218;2022-09-09T14:12:45;4.18;;;1.20;;
62911;SDS011;49111;51.028;4.218;2022-09-09T14:15:11;1.92;;;1.00;;
62911;SDS011;49111;51.028;4.218;2022-09-09T14:17:37;1.13;;;0.70;;
62911;SDS011;49111;51.028;4.218;2022-09-09T14:20:04;2.65;;;1.40;;
62911;SDS011;49111;51.028;4.218;2022-09-09T14:22:35;2.70;;;1.02;;
62911;SDS011;49111;51.028;4.218;2022-09-09T14:25:01;3.45;;;0.93;;
62911;SDS011;49111;51.028;4.218;2022-09-09T14:27:28;2.08;;;1.10;;
62911;SDS011;49111;51.028;4.218;2022-09-09T14:29:55;2.65;;;1.40;;
62911;SDS011;49111;51.028;4.218;2022-09-09T14:32:21;2.10;;;1.55;;
62911;SDS011;49111;51.028;4.218;2022-09-09T14:34:47;3.63;;;1.63;;
62911;SDS011;49111;51.028;4.218;2022-09-09T14:37:16;2.10;;;1.10;;
62911;SDS011;49111;51.028;4.218;2022-09-09T14:39:43;3.03;;;1.25;;
62911;SDS011;49111;51.028;4.218;2022-09-09T14:42:09;4.00;;;1.10;;
62911;SDS011;49111;51.028;4.218;2022-09-09T14:44:36;1.95;;;1.00;;
62911;SDS011;49111;51.028;4.218;2022-09-09T14:47:04;3.70;;;1.23;;
62911;SDS011;49111;51.028;4.218;2022-09-09T14:49:33;8.75;;;1.52;;
62911;SDS011;49111;51.028;4.218;2022-09-09T14:51:59;2.63;;;1.20;;
62911;SDS011;49111;51.028;4.218;2022-09-09T14:54:25;1.20;;;1.10;;
62911;SDS011;49111;51.028;4.218;2022-09-09T14:56:51;8.32;;;2.33;;
62911;SDS011;49111;51.028;4.218;2022-09-09T14:59:17;9.02;;;1.90;;
62911;SDS011;49111;51.028;4.218;2022-09-09T15:01:43;4.53;;;1.63;;
62911;SDS011;49111;51.028;4.218;2022-09-09T15:04:10;5.45;;;2.08;;
62911;SDS011;49111;51.028;4.218;2022-09-09T15:06:39;3.22;;;1.60;;
62911;SDS011;49111;51.028;4.218;2022-09-09T15:09:07;4.38;;;1.48;;
62911;SDS011;49111;51.028;4.218;2022-09-09T15:11:35;3.47;;;1.30;;
62911;SDS011;49111;51.028;4.218;2022-09-09T15:14:05;3.50;;;1.20;;
62911;SDS011;49111;51.028;4.218;2022-09-09T15:16:32;3.53;;;1.63;;
62911;SDS011;49111;51.028;4.218;2022-09-09T15:19:00;4.00;;;1.08;;
62911;SDS011;49111;51.028;4.218;2022-09-09T15:21:27;2.17;;;1.00;;
62911;SDS011;49111;51.028;4.218;2022-09-09T15:23:56;4.80;;;1.40;;
62911;SDS011;49111;51.028;4.218;2022-09-09T15:26:22;3.45;;;1.25;;
62911;SDS011;49111;51.028;4.218;2022-09-09T15:28:49;3.83;;;1.33;;
62911;SDS011;49111;51.028;4.218;2022-09-09T15:31:26;4.10;;;1.60;;
62911;SDS011;49111;51.028;4.218;2022-09-09T15:33:54;3.17;;;1.35;;
62911;SDS011;49111;51.028;4.218;2022-09-09T15:36:28;4.82;;;1.30;;
62911;SDS011;49111;51.028;4.218;2022-09-09T15:39:06;3.58;;;1.98;;
62911;SDS011;49111;51.028;4.218;2022-09-09T15:41:37;4.93;;;1.95;;
62911;SDS011;49111;51.028;4.218;2022-09-09T15:44:04;6.70;;;2.50;;
62911;SDS011;49111;51.028;4.218;2022-09-09T15:46:37;5.70;;;2.40;;
62911;SDS011;49111;51.028;4.218;2022-09-09T15:49:21;4.97;;;2.45;;
62911;SDS011;49111;51.028;4.218;2022-09-09T15:51:59;4.78;;;2.40;;
62911;SDS011;49111;51.028;4.218;2022-09-09T15:54:30;5.90;;;2.25;;
62911;SDS011;49111;51.028;4.218;2022-09-09T15:57:00;4.40;;;2.50;;
62911;SDS011;49111;51.028;4.218;2022-09-09T15:59:28;3.22;;;2.20;;
62911;SDS011;49111;51.028;4.218;2022-09-09T16:01:55;10.18;;;3.63;;
62911;SDS011;49111;51.028;4.218;2022-09-09T16:04:22;3.78;;;2.42;;
62911;SDS011;49111;51.028;4.218;2022-09-09T16:06:56;6.65;;;2.95;;
62911;SDS011;49111;51.028;4.218;2022-09-09T16:09:29;4.93;;;2.67;;
62911;SDS011;49111;51.028;4.218;2022-09-09T16:11:57;5.60;;;2.08;;
62911;SDS011;49111;51.028;4.218;2022-09-09T16:14:27;4.60;;;2.53;;
62911;SDS011;49111;51.028;4.218;2022-09-09T16:16:53;4.30;;;2.50;;
62911;SDS011;49111;51.028;4.218;2022-09-09T16:19:19;8.07;;;2.67;;
62911;SDS011;49111;51.028;4.218;2022-09-09T16:21:46;3.53;;;2.47;;
62911;SDS011;49111;51.028;4.218;2022-09-09T16:24:13;4.65;;;2.92;;
62911;SDS011;49111;51.028;4.218;2022-09-09T16:26:42;3.13;;;2.03;;
62911;SDS011;49111;51.028;4.218;2022-09-09T16:29:10;8.25;;;3.17;;
62911;SDS011;49111;51.028;4.218;2022-09-09T16:31:38;3.33;;;2.15;;
62911;SDS011;49111;51.028;4.218;2022-09-09T16:34:05;5.88;;;2.45;;
62911;SDS011;49111;51.028;4.218;2022-09-09T16:36:32;5.70;;;3.08;;
62911;SDS011;49111;51.028;4.218;2022-09-09T16:39:01;4.32;;;1.63;;
62911;SDS011;49111;51.028;4.218;2022-09-09T16:41:29;3.08;;;2.05;;
62911;SDS011;49111;51.028;4.218;2022-09-09T16:43:55;4.00;;;1.70;;
62911;SDS011;49111;51.028;4.218;2022-09-09T16:46:28;5.63;;;1.65;;
62911;SDS011;49111;51.028;4.218;2022-09-09T16:48:56;3.05;;;2.05;;
62911;SDS011;49111;51.028;4.218;2022-09-09T16:51:26;3.67;;;1.85;;
62911;SDS011;49111;51.028;4.218;2022-09-09T16:54:00;4.13;;;1.80;;
62911;SDS011;49111;51.028;4.218;2022-09-09T16:56:28;3.65;;;1.73;;
62911;SDS011;49111;51.028;4.218;2022-09-09T16:58:57;4.75;;;2.00;;
62911;SDS011;49111;51.028;4.218;2022-09-09T17:01:28;2.63;;;1.60;;
62911;SDS011;49111;51.028;4.218;2022-09-09T17:03:57;3.50;;;1.90;;
62911;SDS011;49111;51.028;4.218;2022-09-09T17:06:25;4.57;;;2.00;;
62911;SDS011;49111;51.028;4.218;2022-09-09T17:08:55;3.83;;;2.20;;
62911;SDS011;49111;51.028;4.218;2022-09-09T17:11:26;4.05;;;1.88;;
62911;SDS011;49111;51.028;4.218;2022-09-09T17:13:53;3.10;;;2.08;;
62911;SDS011;49111;51.028;4.218;2022-09-09T17:16:20;3.60;;;2.05;;
62911;SDS011;49111;51.028;4.218;2022-09-09T17:18:49;5.80;;;2.17;;
62911;SDS011;49111;51.028;4.218;2022-09-09T17:21:17;4.22;;;2.00;;
62911;SDS011;49111;51.028;4.218;2022-09-09T17:23:44;4.38;;;2.22;;
62911;SDS011;49111;51.028;4.218;2022-09-09T17:26:12;4.50;;;2.00;;